sensor_id;sensor_type;location;lat;lon;timestamp;pressure;altitude;pressure_sealevel;temperature;humidity
9839;BME280;4958;48.150;11.506;2023-06-19T00:00:15;95287.63;;;24.68;37.28
9839;BME280;4958;48.150;11.506;2023-06-19T00:02:44;95289.56;;;24.57;37.80
9839;BME280;4958;48.150;11.506;2023-06-19T00:05:12;95291.69;;;24.50;38.02
9839;BME280;4958;48.150;11.506;2023-06-19T00:07:46;95283.00;;;24.50;37.87
9839;BME280;4958;48.150;11.506;2023-06-19T00:10:12;95282.75;;;24.46;37.84
9839;BME280;4958;48.150;11.506;2023-06-19T00:12:39;95280.69;;;24.43;38.15
9839;BME280;4958;48.150;11.506;2023-06-19T00:15:11;95271.94;;;24.48;38.14
9839;BME280;4958;48.150;11.506;2023-06-19T00:17:47;95279.66;;;24.39;38.34
9839;BME280;4958;48.150;11.506;2023-06-19T00:20:13;95280.22;;;24.21;38.71
9839;BME280;4958;48.150;11.506;2023-06-19T00:22:40;95272.59;;;24.19;38.73
9839;BME280;4958;48.150;11.506;2023-06-19T00:25:07;95278.66;;;24.20;39.00
9839;BME280;4958;48.150;11.506;2023-06-19T00:27:37;95279.72;;;24.24;38.60
9839;BME280;4958;48.150;11.506;2023-06-19T00:30:10;95284.41;;;24.27;38.52
9839;BME280;4958;48.150;11.506;2023-06-19T00:32:37;95281.53;;;24.28;38.98
9839;BME280;4958;48.150;11.506;2023-06-19T00:35:13;95285.19;;;24.32;38.56
9839;BME280;4958;48.150;11.506;2023-06-19T00:37:45;95283.88;;;24.30;38.84
9839;BME280;4958;48.150;11.506;2023-06-19T00:40:21;95285.47;;;24.31;38.92
9839;BME280;4958;48.150;11.506;2023-06-19T00:42:53;95286.50;;;24.35;38.98
9839;BME280;4958;48.150;11.506;2023-06-19T00:45:19;95287.28;;;24.35;38.79
9839;BME280;4958;48.150;11.506;2023-06-19T00:47:50;95289.66;;;24.37;38.90
9839;BME280;4958;48.150;11.506;2023-06-19T00:50:19;95285.72;;;24.29;39.20
9839;BME280;4958;48.150;11.506;2023-06-19T00:52:46;95290.72;;;24.31;38.97
9839;BME280;4958;48.150;11.506;2023-06-19T00:55:15;95294.41;;;24.35;39.14
9839;BME280;4958;48.150;11.506;2023-06-19T00:57:45;95292.56;;;24.35;39.11
9839;BME280;4958;48.150;11.506;2023-06-19T01:00:13;95294.66;;;24.38;39.69
9839;BME280;4958;48.150;11.506;2023-06-19T01:02:49;95296.19;;;24.44;38.65
9839;BME280;4958;48.150;11.506;2023-06-19T01:05:19;95296.94;;;24.50;38.92
9839;BME280;4958;48.150;11.506;2023-06-19T01:07:52;95297.75;;;24.51;38.81
9839;BME280;4958;48.150;11.506;2023-06-19T01:10:21;95297.72;;;24.56;38.80
9839;BME280;4958;48.150;11.506;2023-06-19T01:12:56;95296.66;;;24.57;38.70
9839;BME280;4958;48.150;11.506;2023-06-19T01:15:23;95300.38;;;24.45;39.18
9839;BME280;4958;48.150;11.506;2023-06-19T01:17:49;95297.81;;;24.40;39.57
9839;BME280;4958;48.150;11.506;2023-06-19T01:20:16;95302.84;;;24.27;39.99
9839;BME280;4958;48.150;11.506;2023-06-19T01:22:44;95301.78;;;24.28;40.39
9839;BME280;4958;48.150;11.506;2023-06-19T01:25:19;95304.19;;;24.24;40.41
9839;BME280;4958;48.150;11.506;2023-06-19T01:27:47;95300.47;;;24.30;40.31
9839;BME280;4958;48.150;11.506;2023-06-19T01:30:13;95307.28;;;24.41;40.10
9839;BME280;4958;48.150;11.506;2023-06-19T01:32:52;95302.47;;;24.49;40.37
9839;BME280;4958;48.150;11.506;2023-06-19T01:35:28;95303.53;;;24.53;40.53
9839;BME280;4958;48.150;11.506;2023-06-19T01:38:06;95301.94;;;24.57;40.29
9839;BME280;4958;48.150;11.506;2023-06-19T01:40:43;95302.47;;;24.54;40.08
9839;BME280;4958;48.150;11.506;2023-06-19T01:43:14;95301.19;;;24.46;41.26
9839;BME280;4958;48.150;11.506;2023-06-19T01:45:47;95296.69;;;24.47;41.21
9839;BME280;4958;48.150;11.506;2023-06-19T01:48:14;95303.53;;;24.53;40.63
9839;BME280;4958;48.150;11.506;2023-06-19T01:50:41;95304.59;;;24.52;41.14
9839;BME280;4958;48.150;11.506;2023-06-19T01:53:15;95299.59;;;24.50;41.53
9839;BME280;4958;48.150;11.506;2023-06-19T01:55:44;95300.13;;;24.47;41.23
9839;BME280;4958;48.150;11.506;2023-06-19T01:58:13;95295.16;;;24.40;41.98
9839;BME280;4958;48.150;11.506;2023-06-19T02:00:40;95296.47;;;24.43;41.93
9839;BME280;4958;48.150;11.506;2023-06-19T02:03:06;95295.38;;;24.49;41.06
9839;BME280;4958;48.150;11.506;2023-06-19T02:05:33;95298.28;;;24.48;41.15
9839;BME280;4958;48.150;11.506;2023-06-19T02:08:04;95297.81;;;24.35;41.67
9839;BME280;4958;48.150;11.506;2023-06-19T02:10:32;95303.84;;;24.41;41.35
9839;BME280;4958;48.150;11.506;2023-06-19T02:12:59;95297.53;;;24.42;41.01
9839;BME280;4958;48.150;11.506;2023-06-19T02:15:28;95294.38;;;24.40;41.01
9839;BME280;4958;48.150;11.506;2023-06-19T02:17:55;95297.53;;;24.42;40.89
9839;BME280;4958;48.150;11.506;2023-06-19T02:20:30;95298.34;;;24.37;41.25
9839;BME280;4958;48.150;11.506;2023-06-19T02:23:10;95290.69;;;24.41;40.77
9839;BME280;4958;48.150;11.506;2023-06-19T02:25:44;95293.59;;;24.39;40.61
9839;BME280;4958;48.150;11.506;2023-06-19T02:28:11;95297.75;;;24.45;40.52
9839;BME280;4958;48.150;11.506;2023-06-19T02:30:41;95296.22;;;24.39;40.76
9839;BME280;4958;48.150;11.506;2023-06-19T02:33:07;95295.38;;;24.44;40.94
9839;BME280;4958;48.150;11.506;2023-06-19T02:35:34;95297.25;;;24.43;40.56
9839;BME280;4958;48.150;11.506;2023-06-19T02:38:00;95297.75;;;24.45;40.90
9839;BME280;4958;48.150;11.506;2023-06-19T02:40:26;95302.78;;;24.42;41.04
9839;BME280;4958;48.150;11.506;2023-06-19T02:42:54;95302.53;;;24.38;41.21
9839;BME280;4958;48.150;11.506;2023-06-19T02:45:23;95301.22;;;24.36;41.17
9839;BME280;4958;48.150;11.506;2023-06-19T02:47:52;95301.50;;;24.29;41.36
9839;BME280;4958;48.150;11.506;2023-06-19T02:50:18;95303.34;;;24.29;41.25
9839;BME280;4958;48.150;11.506;2023-06-19T02:52:45;95309.44;;;24.24;41.45
9839;BME280;4958;48.150;11.506;2023-06-19T02:55:11;95304.69;;;24.16;41.46
9839;BME280;4958;48.150;11.506;2023-06-19T02:57:40;95306.28;;;24.07;41.75
9839;BME280;4958;48.150;11.506;2023-06-19T03:00:16;95302.09;;;24.06;41.46
9839;BME280;4958;48.150;11.506;2023-06-19T03:02:43;95292.34;;;24.06;41.88
9839;BME280;4958;48.150;11.506;2023-06-19T03:05:12;95295.50;;;24.08;41.77
9839;BME280;4958;48.150;11.506;2023-06-19T03:07:41;95291.56;;;24.11;41.81
9839;BME280;4958;48.150;11.506;2023-06-19T03:10:14;95298.97;;;24.04;42.62
9839;BME280;4958;48.150;11.506;2023-06-19T03:12:40;95307.13;;;23.97;42.32
9839;BME280;4958;48.150;11.506;2023-06-19T03:15:08;95308.97;;;23.97;42.53
9839;BME280;4958;48.150;11.506;2023-06-19T03:17:44;95313.69;;;23.95;42.96
9839;BME280;4958;48.150;11.506;2023-06-19T03:20:11;95313.44;;;23.91;42.56
9839;BME280;4958;48.150;11.506;2023-06-19T03:22:55;95329.47;;;23.95;42.98
9839;BME280;4958;48.150;11.506;2023-06-19T03:25:38;95324.22;;;23.95;43.13
9839;BME280;4958;48.150;11.506;2023-06-19T03:28:13;95332.13;;;23.90;43.55
9839;BME280;4958;48.150;11.506;2023-06-19T03:30:59;95328.97;;;23.93;43.00
9839;BME280;4958;48.150;11.506;2023-06-19T03:33:32;95330.00;;;23.92;43.58
9839;BME280;4958;48.150;11.506;2023-06-19T03:36:10;95329.22;;;23.91;43.61
9839;BME280;4958;48.150;11.506;2023-06-19T03:38:47;95339.22;;;23.94;43.40
9839;BME280;4958;48.150;11.506;2023-06-19T03:42:53;95335.25;;;23.97;43.52
9839;BME280;4958;48.150;11.506;2023-06-19T03:44:12;95343.69;;;23.99;43.03
9839;BME280;4958;48.150;11.506;2023-06-19T03:46:46;95348.69;;;23.90;44.19
9839;BME280;4958;48.150;11.506;2023-06-19T03:49:17;95348.69;;;23.90;43.66
9839;BME280;4958;48.150;11.506;2023-06-19T03:51:47;95352.09;;;23.91;43.75
9839;BME280;4958;48.150;11.506;2023-06-19T03:54:14;95360.25;;;23.94;43.81
9839;BME280;4958;48.150;11.506;2023-06-19T03:56:43;95370.25;;;23.97;44.33
9839;BME280;4958;48.150;11.506;2023-06-19T03:59:12;95363.66;;;23.95;44.42
9839;BME280;4958;48.150;11.506;2023-06-19T04:01:38;95360.00;;;23.91;44.64
9839;BME280;4958;48.150;11.506;2023-06-19T04:04:05;95365.25;;;23.96;44.41
9839;BME280;4958;48.150;11.506;2023-06-19T04:06:33;95370.50;;;23.96;44.76
9839;BME280;4958;48.150;11.506;2023-06-19T04:09:00;95364.19;;;23.92;45.07
9839;BME280;4958;48.150;11.506;2023-06-19T04:11:26;95376.03;;;23.94;44.69
9839;BME280;4958;48.150;11.506;2023-06-19T04:13:58;95363.66;;;23.95;44.83
9839;BME280;4958;48.150;11.506;2023-06-19T04:16:24;95373.13;;;23.91;45.52
9839;BME280;4958;48.150;11.506;2023-06-19T04:18:51;95379.19;;;23.91;44.87
9839;BME280;4958;48.150;11.506;2023-06-19T04:21:17;95379.44;;;23.90;45.27
9839;BME280;4958;48.150;11.506;2023-06-19T04:23:45;95385.25;;;23.92;45.58
9839;BME280;4958;48.150;11.506;2023-06-19T04:26:11;95385.50;;;23.90;45.08
9839;BME280;4958;48.150;11.506;2023-06-19T04:28:38;95386.56;;;23.89;45.58
9839;BME280;4958;48.150;11.506;2023-06-19T04:31:04;95393.91;;;23.92;45.52
9839;BME280;4958;48.150;11.506;2023-06-19T04:33:31;95392.34;;;23.91;45.87
9839;BME280;4958;48.150;11.506;2023-06-19T04:35:57;95395.53;;;23.83;46.39
9839;BME280;4958;48.150;11.506;2023-06-19T04:38:24;95401.81;;;23.82;46.56
9839;BME280;4958;48.150;11.506;2023-06-19T04:40:52;95398.38;;;23.87;46.20
9839;BME280;4958;48.150;11.506;2023-06-19T04:43:19;95399.44;;;23.91;46.65
9839;BME280;4958;48.150;11.506;2023-06-19T04:45:45;95405.47;;;23.86;47.19
9839;BME280;4958;48.150;11.506;2023-06-19T04:48:12;95431.53;;;23.88;47.10
9839;BME280;4958;48.150;11.506;2023-06-19T04:50:38;95431.53;;;23.83;47.76
9839;BME280;4958;48.150;11.506;2023-06-19T04:53:05;95420.50;;;23.81;47.93
9839;BME280;4958;48.150;11.506;2023-06-19T04:55:32;95424.44;;;23.78;48.26
9839;BME280;4958;48.150;11.506;2023-06-19T04:58:02;95433.13;;;23.79;48.58
9839;BME280;4958;48.150;11.506;2023-06-19T05:00:28;95438.34;;;23.68;49.32
9839;BME280;4958;48.150;11.506;2023-06-19T05:03:02;95429.94;;;23.56;49.78
9839;BME280;4958;48.150;11.506;2023-06-19T05:05:35;95441.53;;;23.60;50.65
9839;BME280;4958;48.150;11.506;2023-06-19T05:08:07;95442.81;;;23.68;50.03
9839;BME280;4958;48.150;11.506;2023-06-19T05:10:39;95437.03;;;23.71;50.40
9839;BME280;4958;48.150;11.506;2023-06-19T05:13:07;95445.44;;;23.68;51.41
9839;BME280;4958;48.150;11.506;2023-06-19T05:15:34;95449.13;;;23.67;50.59
9839;BME280;4958;48.150;11.506;2023-06-19T05:18:02;95448.63;;;23.60;51.64
9839;BME280;4958;48.150;11.506;2023-06-19T05:20:30;95445.97;;;23.55;50.69
9839;BME280;4958;48.150;11.506;2023-06-19T05:22:59;95449.38;;;23.55;50.97
9839;BME280;4958;48.150;11.506;2023-06-19T05:25:25;95449.94;;;23.62;51.04
9839;BME280;4958;48.150;11.506;2023-06-19T05:27:52;95445.72;;;23.61;51.16
9839;BME280;4958;48.150;11.506;2023-06-19T05:30:20;95453.63;;;23.66;50.09
9839;BME280;4958;48.150;11.506;2023-06-19T05:32:47;95448.38;;;23.66;49.68
9839;BME280;4958;48.150;11.506;2023-06-19T05:35:13;95452.28;;;23.69;49.26
9839;BME280;4958;48.150;11.506;2023-06-19T05:37:39;95453.34;;;23.78;48.66
9839;BME280;4958;48.150;11.506;2023-06-19T05:40:09;95458.38;;;23.85;48.52
9839;BME280;4958;48.150;11.506;2023-06-19T05:42:36;95466.25;;;23.90;48.14
9839;BME280;4958;48.150;11.506;2023-06-19T05:45:03;95472.81;;;23.97;47.96
9839;BME280;4958;48.150;11.506;2023-06-19T05:47:34;95473.63;;;24.03;47.67
9839;BME280;4958;48.150;11.506;2023-06-19T05:50:05;95473.88;;;24.11;47.36
9839;BME280;4958;48.150;11.506;2023-06-19T05:52:38;95467.81;;;24.16;47.34
9839;BME280;4958;48.150;11.506;2023-06-19T05:55:08;95474.44;;;24.24;47.07
9839;BME280;4958;48.150;11.506;2023-06-19T05:57:38;95481.00;;;24.36;46.82
9839;BME280;4958;48.150;11.506;2023-06-19T06:00:16;95476.50;;;24.42;46.46
9839;BME280;4958;48.150;11.506;2023-06-19T06:02:44;95478.06;;;24.48;46.59
9839;BME280;4958;48.150;11.506;2023-06-19T06:05:13;95486.75;;;24.49;46.02
9839;BME280;4958;48.150;11.506;2023-06-19T06:07:41;95487.28;;;24.45;46.18
9839;BME280;4958;48.150;11.506;2023-06-19T06:10:16;95487.28;;;24.51;46.22
9839;BME280;4958;48.150;11.506;2023-06-19T06:12:44;95495.16;;;24.61;46.20
9839;BME280;4958;48.150;11.506;2023-06-19T06:15:11;95497.53;;;24.62;45.84
9839;BME280;4958;48.150;11.506;2023-06-19T06:17:37;95500.69;;;24.59;45.83
9839;BME280;4958;48.150;11.506;2023-06-19T06:20:06;95496.44;;;24.63;45.65
9839;BME280;4958;48.150;11.506;2023-06-19T06:22:37;95506.19;;;24.68;45.39
9839;BME280;4958;48.150;11.506;2023-06-19T06:25:04;95511.72;;;24.71;45.54
9839;BME280;4958;48.150;11.506;2023-06-19T06:27:31;95507.50;;;24.75;45.65
9839;BME280;4958;48.150;11.506;2023-06-19T06:30:00;95506.94;;;24.89;45.43
9839;BME280;4958;48.150;11.506;2023-06-19T06:32:27;95510.09;;;25.01;45.47
9839;BME280;4958;48.150;11.506;2023-06-19T06:34:54;95512.41;;;25.12;45.36
9839;BME280;4958;48.150;11.506;2023-06-19T06:37:21;95513.47;;;25.17;45.40
9839;BME280;4958;48.150;11.506;2023-06-19T06:39:48;95517.41;;;25.19;44.91
9839;BME280;4958;48.150;11.506;2023-06-19T06:42:15;95522.34;;;25.36;45.30
9839;BME280;4958;48.150;11.506;2023-06-19T06:44:50;95532.81;;;25.46;44.60
9839;BME280;4958;48.150;11.506;2023-06-19T06:47:16;95533.88;;;25.50;44.48
9839;BME280;4958;48.150;11.506;2023-06-19T06:49:43;95533.84;;;25.55;44.49
9839;BME280;4958;48.150;11.506;2023-06-19T06:52:12;95532.75;;;25.61;44.08
9839;BME280;4958;48.150;11.506;2023-06-19T06:54:45;95537.53;;;25.59;44.26
9839;BME280;4958;48.150;11.506;2023-06-19T06:57:13;95546.00;;;25.51;44.23
9839;BME280;4958;48.150;11.506;2023-06-19T06:59:40;95549.19;;;25.43;44.18
9839;BME280;4958;48.150;11.506;2023-06-19T07:02:06;95546.00;;;25.51;44.25
9839;BME280;4958;48.150;11.506;2023-06-19T07:04:35;95554.97;;;25.50;44.55
9839;BME280;4958;48.150;11.506;2023-06-19T07:07:02;95559.94;;;25.57;44.48
9839;BME280;4958;48.150;11.506;2023-06-19T07:09:29;95553.63;;;25.58;44.25
9839;BME280;4958;48.150;11.506;2023-06-19T07:11:58;95553.28;;;25.74;44.64
9839;BME280;4958;48.150;11.506;2023-06-19T07:14:29;95547.69;;;25.81;44.20
9839;BME280;4958;48.150;11.506;2023-06-19T07:16:58;95551.13;;;25.81;44.31
9839;BME280;4958;48.150;11.506;2023-06-19T07:19:28;95552.56;;;26.03;43.89
9839;BME280;4958;48.150;11.506;2023-06-19T07:21:59;95559.31;;;26.19;44.32
9839;BME280;4958;48.150;11.506;2023-06-19T07:24:31;95544.19;;;26.35;43.44
9839;BME280;4958;48.150;11.506;2023-06-19T07:27:06;95553.88;;;26.44;43.75
9839;BME280;4958;48.150;11.506;2023-06-19T07:29:32;95551.78;;;26.41;43.38
9839;BME280;4958;48.150;11.506;2023-06-19T07:31:59;95552.00;;;26.45;43.73
9839;BME280;4958;48.150;11.506;2023-06-19T07:34:41;95549.97;;;26.37;43.54
9839;BME280;4958;48.150;11.506;2023-06-19T07:37:16;95557.41;;;26.35;43.85
9839;BME280;4958;48.150;11.506;2023-06-19T07:39:43;95558.13;;;26.40;43.46
9839;BME280;4958;48.150;11.506;2023-06-19T07:42:17;95553.56;;;26.51;43.70
9839;BME280;4958;48.150;11.506;2023-06-19T07:44:47;95563.75;;;26.63;43.38
9839;BME280;4958;48.150;11.506;2023-06-19T07:47:20;95558.09;;;26.74;43.27
9839;BME280;4958;48.150;11.506;2023-06-19T07:49:46;95560.03;;;26.93;43.23
9839;BME280;4958;48.150;11.506;2023-06-19T07:52:13;95556.28;;;26.99;42.55
9839;BME280;4958;48.150;11.506;2023-06-19T07:54:49;95558.69;;;26.95;42.89
9839;BME280;4958;48.150;11.506;2023-06-19T07:57:21;95566.72;;;26.85;42.52
9839;BME280;4958;48.150;11.506;2023-06-19T07:59:51;95567.41;;;26.96;42.58
9839;BME280;4958;48.150;11.506;2023-06-19T08:02:17;95568.84;;;27.12;42.28
9839;BME280;4958;48.150;11.506;2023-06-19T08:04:45;95573.63;;;27.10;42.10
9839;BME280;4958;48.150;11.506;2023-06-19T08:07:14;95565.34;;;27.16;41.90
9839;BME280;4958;48.150;11.506;2023-06-19T08:09:41;95563.56;;;27.12;41.83
9839;BME280;4958;48.150;11.506;2023-06-19T08:12:09;95570.97;;;27.10;41.84
9839;BME280;4958;48.150;11.506;2023-06-19T08:14:40;95570.00;;;27.01;42.01
9839;BME280;4958;48.150;11.506;2023-06-19T08:17:16;95569.41;;;27.09;42.24
9839;BME280;4958;48.150;11.506;2023-06-19T08:19:42;95571.28;;;27.32;42.10
9839;BME280;4958;48.150;11.506;2023-06-19T08:22:09;95574.56;;;27.43;42.28
9839;BME280;4958;48.150;11.506;2023-06-19T08:24:36;95570.19;;;27.52;42.13
9839;BME280;4958;48.150;11.506;2023-06-19T08:27:06;95573.00;;;27.66;42.00
9839;BME280;4958;48.150;11.506;2023-06-19T08:29:39;95561.06;;;27.87;40.92
9839;BME280;4958;48.150;11.506;2023-06-19T08:32:08;95563.78;;;27.82;41.37
9839;BME280;4958;48.150;11.506;2023-06-19T08:34:38;95560.00;;;28.07;40.94
9839;BME280;4958;48.150;11.506;2023-06-19T08:37:08;95561.19;;;28.33;40.77
9839;BME280;4958;48.150;11.506;2023-06-19T08:39:43;95550.25;;;28.53;40.25
9839;BME280;4958;48.150;11.506;2023-06-19T08:42:10;95550.75;;;28.56;40.84
9839;BME280;4958;48.150;11.506;2023-06-19T08:48:06;95552.59;;;28.87;39.25
9839;BME280;4958;48.150;11.506;2023-06-19T08:50:46;95557.53;;;29.08;38.74
9839;BME280;4958;48.150;11.506;2023-06-19T08:53:17;95557.34;;;29.32;37.10
9839;BME280;4958;48.150;11.506;2023-06-19T08:55:53;95555.88;;;29.53;36.85
9839;BME280;4958;48.150;11.506;2023-06-19T08:58:22;95559.47;;;29.71;36.90
9839;BME280;4958;48.150;11.506;2023-06-19T09:00:51;95544.59;;;29.83;36.83
9839;BME280;4958;48.150;11.506;2023-06-19T09:03:33;95539.56;;;29.60;37.02
9839;BME280;4958;48.150;11.506;2023-06-19T09:06:06;95544.78;;;29.37;36.99
9839;BME280;4958;48.150;11.506;2023-06-19T09:08:36;95543.09;;;29.14;37.22
9839;BME280;4958;48.150;11.506;2023-06-19T09:11:18;95545.19;;;29.03;37.92
9839;BME280;4958;48.150;11.506;2023-06-19T09:14:12;95539.25;;;28.93;38.14
9839;BME280;4958;48.150;11.506;2023-06-19T09:16:55;95537.94;;;28.76;38.88
9839;BME280;4958;48.150;11.506;2023-06-19T09:19:23;95540.09;;;28.74;38.86
9839;BME280;4958;48.150;11.506;2023-06-19T09:21:58;95541.25;;;28.68;39.56
9839;BME280;4958;48.150;11.506;2023-06-19T09:24:38;95542.94;;;28.64;40.08
9839;BME280;4958;48.150;11.506;2023-06-19T09:27:07;95552.25;;;28.62;40.41
9839;BME280;4958;48.150;11.506;2023-06-19T09:32:24;95547.41;;;28.50;40.75
9839;BME280;4958;48.150;11.506;2023-06-19T09:34:53;95553.97;;;28.52;41.02
9839;BME280;4958;48.150;11.506;2023-06-19T09:37:22;95540.44;;;28.54;41.33
9839;BME280;4958;48.150;11.506;2023-06-19T09:40:06;95539.97;;;28.98;40.65
9839;BME280;4958;48.150;11.506;2023-06-19T09:42:37;95543.59;;;29.16;40.37
9839;BME280;4958;48.150;11.506;2023-06-19T09:45:08;95544.75;;;29.10;40.34
9839;BME280;4958;48.150;11.506;2023-06-19T09:47:37;95540.84;;;28.94;40.39
9839;BME280;4958;48.150;11.506;2023-06-19T09:50:06;95535.59;;;28.75;40.15
9839;BME280;4958;48.150;11.506;2023-06-19T09:52:36;95538.28;;;29.02;40.50
9839;BME280;4958;48.150;11.506;2023-06-19T09:55:21;95524.44;;;29.33;39.74
9839;BME280;4958;48.150;11.506;2023-06-19T09:58:15;95538.34;;;29.66;39.29
9839;BME280;4958;48.150;11.506;2023-06-19T10:00:45;95538.41;;;29.88;38.92
9839;BME280;4958;48.150;11.506;2023-06-19T10:06:13;95534.53;;;30.30;37.38
9839;BME280;4958;48.150;11.506;2023-06-19T10:08:50;95532.06;;;30.34;37.50
9839;BME280;4958;48.150;11.506;2023-06-19T10:11:17;95536.47;;;30.38;37.85
9839;BME280;4958;48.150;11.506;2023-06-19T10:14:11;95526.84;;;30.51;37.50
9839;BME280;4958;48.150;11.506;2023-06-19T10:16:47;95528.72;;;30.73;37.11
9839;BME280;4958;48.150;11.506;2023-06-19T10:19:38;95515.78;;;30.88;36.55
9839;BME280;4958;48.150;11.506;2023-06-19T10:22:59;95523.72;;;31.11;35.95
9839;BME280;4958;48.150;11.506;2023-06-19T10:25:37;95524.44;;;31.34;35.22
9839;BME280;4958;48.150;11.506;2023-06-19T10:28:22;95530.53;;;31.43;35.11
9839;BME280;4958;48.150;11.506;2023-06-19T10:31:09;95518.50;;;31.45;34.69
9839;BME280;4958;48.150;11.506;2023-06-19T10:33:43;95515.50;;;31.38;35.30
9839;BME280;4958;48.150;11.506;2023-06-19T10:36:14;95520.72;;;31.52;34.51
9839;BME280;4958;48.150;11.506;2023-06-19T10:38:42;95512.06;;;31.46;34.75
9839;BME280;4958;48.150;11.506;2023-06-19T10:41:15;95513.03;;;31.59;34.59
9839;BME280;4958;48.150;11.506;2023-06-19T10:43:41;95518.22;;;31.64;34.51
9839;BME280;4958;48.150;11.506;2023-06-19T10:46:07;95514.63;;;31.77;34.28
9839;BME280;4958;48.150;11.506;2023-06-19T10:48:34;95519.19;;;31.85;33.75
9839;BME280;4958;48.150;11.506;2023-06-19T10:51:00;95509.66;;;31.93;33.92
9839;BME280;4958;48.150;11.506;2023-06-19T10:53:31;95508.94;;;31.36;34.25
9839;BME280;4958;48.150;11.506;2023-06-19T10:56:02;95503.97;;;31.51;33.73
9839;BME280;4958;48.150;11.506;2023-06-19T10:58:28;95499.63;;;31.73;34.41
9839;BME280;4958;48.150;11.506;2023-06-19T11:00:55;95505.09;;;31.85;33.68
9839;BME280;4958;48.150;11.506;2023-06-19T11:03:22;95501.34;;;31.86;33.30
9839;BME280;4958;48.150;11.506;2023-06-19T11:05:49;95494.44;;;31.85;32.71
9839;BME280;4958;48.150;11.506;2023-06-19T11:08:19;95493.50;;;31.89;32.78
9839;BME280;4958;48.150;11.506;2023-06-19T11:10:57;95483.78;;;31.93;32.11
9839;BME280;4958;48.150;11.506;2023-06-19T11:13:25;95489.41;;;32.09;32.80
9839;BME280;4958;48.150;11.506;2023-06-19T11:15:51;95492.25;;;31.70;33.03
9839;BME280;4958;48.150;11.506;2023-06-19T11:18:24;95479.72;;;31.87;33.01
9839;BME280;4958;48.150;11.506;2023-06-19T11:21:01;95485.97;;;32.09;32.09
9839;BME280;4958;48.150;11.506;2023-06-19T11:23:33;95477.34;;;32.29;31.86
9839;BME280;4958;48.150;11.506;2023-06-19T11:26:10;95470.44;;;32.28;31.75
9839;BME280;4958;48.150;11.506;2023-06-19T11:28:47;95474.06;;;32.32;31.17
9839;BME280;4958;48.150;11.506;2023-06-19T11:31:14;95474.34;;;32.39;31.67
9839;BME280;4958;48.150;11.506;2023-06-19T11:33:55;95471.94;;;32.55;31.77
9839;BME280;4958;48.150;11.506;2023-06-19T11:36:23;95473.63;;;32.59;31.48
9839;BME280;4958;48.150;11.506;2023-06-19T11:38:51;95458.00;;;32.49;31.64
9839;BME280;4958;48.150;11.506;2023-06-19T11:41:29;95467.72;;;32.45;31.38
9839;BME280;4958;48.150;11.506;2023-06-19T11:44:03;95465.50;;;32.56;31.02
9839;BME280;4958;48.150;11.506;2023-06-19T11:46:30;95462.13;;;32.30;31.84
9839;BME280;4958;48.150;11.506;2023-06-19T11:49:18;95464.03;;;32.20;31.69
9839;BME280;4958;48.150;11.506;2023-06-19T11:51:50;95462.47;;;31.76;32.06
9839;BME280;4958;48.150;11.506;2023-06-19T11:54:20;95461.19;;;31.65;32.26
9839;BME280;4958;48.150;11.506;2023-06-19T12:04:20;95460.00;;;32.52;31.56
9839;BME280;4958;48.150;11.506;2023-06-19T12:06:58;95453.69;;;32.74;31.12
9839;BME280;4958;48.150;11.506;2023-06-19T12:09:54;95459.16;;;32.86;30.78
9839;BME280;4958;48.150;11.506;2023-06-19T12:12:21;95455.00;;;32.98;30.80
9839;BME280;4958;48.150;11.506;2023-06-19T12:15:03;95455.41;;;33.08;30.62
9839;BME280;4958;48.150;11.506;2023-06-19T12:17:32;95443.53;;;32.97;30.24
9839;BME280;4958;48.150;11.506;2023-06-19T12:20:06;95448.06;;;33.05;30.61
9839;BME280;4958;48.150;11.506;2023-06-19T12:22:33;95439.03;;;33.18;30.20
9839;BME280;4958;48.150;11.506;2023-06-19T12:25:17;95445.47;;;33.17;30.14
9839;BME280;4958;48.150;11.506;2023-06-19T12:27:52;95442.63;;;33.22;30.13
9839;BME280;4958;48.150;11.506;2023-06-19T12:30:38;95438.00;;;33.32;29.26
9839;BME280;4958;48.150;11.506;2023-06-19T12:33:17;95433.69;;;33.18;29.84
9839;BME280;4958;48.150;11.506;2023-06-19T12:35:53;95428.81;;;33.20;29.76
9839;BME280;4958;48.150;11.506;2023-06-19T12:38:27;95428.78;;;33.29;29.92
9839;BME280;4958;48.150;11.506;2023-06-19T12:41:08;95426.47;;;33.19;29.93
9839;BME280;4958;48.150;11.506;2023-06-19T12:43:48;95421.44;;;33.26;29.37
9839;BME280;4958;48.150;11.506;2023-06-19T12:46:18;95419.63;;;33.09;30.00
9839;BME280;4958;48.150;11.506;2023-06-19T12:49:08;95424.28;;;33.12;30.00
9839;BME280;4958;48.150;11.506;2023-06-19T12:51:42;95407.75;;;32.98;29.77
9839;BME280;4958;48.150;11.506;2023-06-19T12:54:13;95405.72;;;32.95;30.28
9839;BME280;4958;48.150;11.506;2023-06-19T12:56:39;95413.38;;;33.05;30.66
9839;BME280;4958;48.150;11.506;2023-06-19T12:59:12;95407.72;;;33.07;30.36
9839;BME280;4958;48.150;11.506;2023-06-19T13:01:52;95416.97;;;33.30;29.99
9839;BME280;4958;48.150;11.506;2023-06-19T13:04:45;95408.88;;;33.18;29.49
9839;BME280;4958;48.150;11.506;2023-06-19T13:07:42;95411.03;;;33.24;29.43
9839;BME280;4958;48.150;11.506;2023-06-19T13:10:10;95411.53;;;33.26;29.76
9839;BME280;4958;48.150;11.506;2023-06-19T13:12:41;95406.44;;;33.34;29.95
9839;BME280;4958;48.150;11.506;2023-06-19T13:15:18;95407.94;;;33.43;29.64
9839;BME280;4958;48.150;11.506;2023-06-19T13:21:01;95395.91;;;33.37;29.19
9839;BME280;4958;48.150;11.506;2023-06-19T13:23:40;95399.47;;;33.41;29.29
9839;BME280;4958;48.150;11.506;2023-06-19T13:26:25;95389.25;;;33.43;28.78
9839;BME280;4958;48.150;11.506;2023-06-19T13:29:04;95388.63;;;33.25;29.66
9839;BME280;4958;48.150;11.506;2023-06-19T13:31:34;95392.63;;;33.32;29.72
9839;BME280;4958;48.150;11.506;2023-06-19T13:34:09;95391.34;;;33.38;29.79
9839;BME280;4958;48.150;11.506;2023-06-19T13:36:40;95386.28;;;33.45;29.58
9839;BME280;4958;48.150;11.506;2023-06-19T13:42:45;95384.16;;;33.50;29.78
9839;BME280;4958;48.150;11.506;2023-06-19T13:54:28;95371.59;;;33.30;29.42
9839;BME280;4958;48.150;11.506;2023-06-19T14:02:39;95375.06;;;32.42;30.52
9839;BME280;4958;48.150;11.506;2023-06-19T14:08:22;95372.16;;;32.26;31.08
9839;BME280;4958;48.150;11.506;2023-06-19T14:40:28;95326.53;;;32.57;30.74
9839;BME280;4958;48.150;11.506;2023-06-19T14:49:41;95318.53;;;32.19;30.55